sensor_id;sensor_type;location;lat;lon;timestamp;pressure;altitude;pressure_sealevel;temperature;humidity
35553;BME280;21656;46.054;13.614;2023-04-28T00:00:28;101040.41;;;8.12;100.00
35553;BME280;21656;46.054;13.614;2023-04-28T00:02:53;101040.97;;;8.03;100.00
35553;BME280;21656;46.054;13.614;2023-04-28T00:05:19;101043.09;;;8.12;100.00
35553;BME280;21656;46.054;13.614;2023-04-28T00:07:44;101034.50;;;8.21;100.00
35553;BME280;21656;46.054;13.614;2023-04-28T00:10:09;101034.56;;;8.20;100.00
35553;BME280;21656;46.054;13.614;2023-04-28T00:12:35;101028.63;;;8.00;100.00
35553;BME280;21656;46.054;13.614;2023-04-28T00:15:00;101030.53;;;7.98;100.00
35553;BME280;21656;46.054;13.614;2023-04-28T00:17:25;101033.19;;;7.98;100.00
35553;BME280;21656;46.054;13.614;2023-04-28T00:19:50;101034.91;;;7.99;100.00
35553;BME280;21656;46.054;13.614;2023-04-28T00:22:17;101040.88;;;8.04;100.00
35553;BME280;21656;46.054;13.614;2023-04-28T00:24:42;101039.75;;;8.09;100.00
35553;BME280;21656;46.054;13.614;2023-04-28T00:27:07;101031.00;;;8.05;100.00
35553;BME280;21656;46.054;13.614;2023-04-28T00:29:33;101034.72;;;8.02;100.00
35553;BME280;21656;46.054;13.614;2023-04-28T00:31:58;101031.78;;;8.07;100.00
35553;BME280;21656;46.054;13.614;2023-04-28T00:34:23;101033.66;;;7.91;100.00
35553;BME280;21656;46.054;13.614;2023-04-28T00:36:48;101028.31;;;7.91;100.00
35553;BME280;21656;46.054;13.614;2023-04-28T00:39:14;101028.19;;;7.92;100.00
35553;BME280;21656;46.054;13.614;2023-04-28T00:41:40;101022.34;;;7.86;100.00
35553;BME280;21656;46.054;13.614;2023-04-28T00:44:05;101033.66;;;7.91;100.00
35553;BME280;21656;46.054;13.614;2023-04-28T00:46:30;101027.19;;;7.79;100.00
35553;BME280;21656;46.054;13.614;2023-04-28T00:48:58;101018.03;;;7.83;100.00
35553;BME280;21656;46.054;13.614;2023-04-28T00:51:23;101032.28;;;7.84;100.00
35553;BME280;21656;46.054;13.614;2023-04-28T00:53:49;101020.44;;;7.88;100.00
35553;BME280;21656;46.054;13.614;2023-04-28T00:56:14;101029.53;;;7.85;100.00
35553;BME280;21656;46.054;13.614;2023-04-28T00:58:40;101030.13;;;7.90;100.00
35553;BME280;21656;46.054;13.614;2023-04-28T01:01:06;101023.78;;;7.91;100.00
35553;BME280;21656;46.054;13.614;2023-04-28T01:03:35;101020.84;;;7.96;100.00
35553;BME280;21656;46.054;13.614;2023-04-28T01:06:03;101019.69;;;8.00;100.00
35553;BME280;21656;46.054;13.614;2023-04-28T01:08:29;101020.84;;;7.96;100.00
35553;BME280;21656;46.054;13.614;2023-04-28T01:10:54;101023.59;;;7.94;100.00
35553;BME280;21656;46.054;13.614;2023-04-28T05:13:28;101025.03;;;8.87;100.00
35553;BME280;21656;46.054;13.614;2023-04-28T05:15:53;101021.66;;;8.98;100.00
35553;BME280;21656;46.054;13.614;2023-04-28T05:18:19;101022.13;;;9.05;100.00
35553;BME280;21656;46.054;13.614;2023-04-28T05:20:44;101023.34;;;9.14;100.00
35553;BME280;21656;46.054;13.614;2023-04-28T05:23:10;101021.97;;;9.21;100.00
35553;BME280;21656;46.054;13.614;2023-04-28T05:25:35;101021.28;;;9.31;100.00
35553;BME280;21656;46.054;13.614;2023-04-28T05:28:03;101011.00;;;9.38;100.00
35553;BME280;21656;46.054;13.614;2023-04-28T05:30:34;101012.41;;;9.44;100.00
35553;BME280;21656;46.054;13.614;2023-04-28T05:33:09;101013.13;;;9.60;100.00
35553;BME280;21656;46.054;13.614;2023-04-28T05:35:38;101018.59;;;9.59;100.00
35553;BME280;21656;46.054;13.614;2023-04-28T05:38:06;101020.41;;;9.58;100.00
35553;BME280;21656;46.054;13.614;2023-04-28T05:40:38;101027.22;;;9.64;100.00
35553;BME280;21656;46.054;13.614;2023-04-28T05:43:03;101035.22;;;9.51;100.00
35553;BME280;21656;46.054;13.614;2023-04-28T05:45:29;101033.44;;;9.64;100.00
35553;BME280;21656;46.054;13.614;2023-04-28T05:47:57;101027.38;;;9.75;100.00
35553;BME280;21656;46.054;13.614;2023-04-28T05:50:23;101037.47;;;9.84;100.00
35553;BME280;21656;46.054;13.614;2023-04-28T05:52:51;101032.88;;;9.99;100.00
35553;BME280;21656;46.054;13.614;2023-04-28T05:55:19;101030.22;;;10.12;100.00
35553;BME280;21656;46.054;13.614;2023-04-28T05:57:52;101039.50;;;10.20;100.00
35553;BME280;21656;46.054;13.614;2023-04-28T06:00:22;101040.22;;;10.23;100.00
35553;BME280;21656;46.054;13.614;2023-04-28T06:02:52;101033.78;;;10.25;100.00
35553;BME280;21656;46.054;13.614;2023-04-28T06:05:24;101033.41;;;10.31;100.00
35553;BME280;21656;46.054;13.614;2023-04-28T06:08:00;101040.72;;;10.42;100.00
35553;BME280;21656;46.054;13.614;2023-04-28T06:10:27;101046.09;;;10.55;100.00
35553;BME280;21656;46.054;13.614;2023-04-28T06:13:10;101046.31;;;10.65;100.00
35553;BME280;21656;46.054;13.614;2023-04-28T06:15:39;101038.00;;;10.68;100.00
35553;BME280;21656;46.054;13.614;2023-04-28T06:18:07;101041.66;;;10.79;100.00
35553;BME280;21656;46.054;13.614;2023-04-28T06:23:25;101024.69;;;11.03;100.00
35553;BME280;21656;46.054;13.614;2023-04-28T06:25:59;101026.06;;;11.09;100.00
35553;BME280;21656;46.054;13.614;2023-04-28T06:28:28;101031.50;;;10.96;100.00
35553;BME280;21656;46.054;13.614;2023-04-28T06:30:56;101025.81;;;10.88;100.00
35553;BME280;21656;46.054;13.614;2023-04-28T06:33:26;101029.78;;;10.95;100.00
35553;BME280;21656;46.054;13.614;2023-04-28T06:35:54;101027.91;;;11.08;100.00
35553;BME280;21656;46.054;13.614;2023-04-28T06:38:20;101027.13;;;11.19;100.00
35553;BME280;21656;46.054;13.614;2023-04-28T06:40:49;101024.59;;;11.28;100.00
35553;BME280;21656;46.054;13.614;2023-04-28T06:43:24;101029.56;;;11.35;100.00
35553;BME280;21656;46.054;13.614;2023-04-28T06:45:52;101039.69;;;11.31;100.00
35553;BME280;21656;46.054;13.614;2023-04-28T06:48:20;101026.28;;;11.42;100.00
35553;BME280;21656;46.054;13.614;2023-04-28T06:50:48;101026.97;;;11.57;100.00
35553;BME280;21656;46.054;13.614;2023-04-28T06:53:29;101026.41;;;11.65;100.00
35553;BME280;21656;46.054;13.614;2023-04-28T06:55:57;101022.53;;;11.80;100.00
35553;BME280;21656;46.054;13.614;2023-04-28T06:58:22;101022.94;;;11.87;100.00
35553;BME280;21656;46.054;13.614;2023-04-28T07:00:55;101024.69;;;11.88;100.00
35553;BME280;21656;46.054;13.614;2023-04-28T07:03:31;101021.84;;;11.89;100.00
35553;BME280;21656;46.054;13.614;2023-04-28T07:05:56;101021.16;;;11.99;100.00
35553;BME280;21656;46.054;13.614;2023-04-28T07:08:24;101025.22;;;12.04;100.00
35553;BME280;21656;46.054;13.614;2023-04-28T07:10:50;101027.81;;;12.17;100.00
35553;BME280;21656;46.054;13.614;2023-04-28T07:13:16;101021.38;;;12.31;100.00
35553;BME280;21656;46.054;13.614;2023-04-28T07:15:44;101021.84;;;12.36;100.00
35553;BME280;21656;46.054;13.614;2023-04-28T07:18:09;101011.81;;;12.49;100.00
35553;BME280;21656;46.054;13.614;2023-04-28T07:20:34;101005.44;;;12.62;100.00
35553;BME280;21656;46.054;13.614;2023-04-28T07:23:03;101000.75;;;12.75;100.00
35553;BME280;21656;46.054;13.614;2023-04-28T07:25:34;100997.16;;;12.86;100.00
35553;BME280;21656;46.054;13.614;2023-04-28T07:28:07;100994.47;;;12.97;100.00
35553;BME280;21656;46.054;13.614;2023-04-28T07:30:35;100997.88;;;13.10;100.00
35553;BME280;21656;46.054;13.614;2023-04-28T07:33:00;100997.03;;;13.10;100.00
35553;BME280;21656;46.054;13.614;2023-04-28T07:35:26;100997.03;;;12.98;100.00
35553;BME280;21656;46.054;13.614;2023-04-28T07:37:53;101006.13;;;12.97;100.00
35553;BME280;21656;46.054;13.614;2023-04-28T07:40:24;101008.47;;;13.02;100.00
35553;BME280;21656;46.054;13.614;2023-04-28T07:42:50;101008.19;;;13.16;100.00
35553;BME280;21656;46.054;13.614;2023-04-28T07:45:18;101014.56;;;13.27;100.00
35553;BME280;21656;46.054;13.614;2023-04-28T07:47:45;101017.50;;;13.23;100.00
35553;BME280;21656;46.054;13.614;2023-04-28T07:50:13;101030.91;;;13.25;100.00
35553;BME280;21656;46.054;13.614;2023-04-28T07:52:45;101031.69;;;13.27;100.00
35553;BME280;21656;46.054;13.614;2023-04-28T07:55:12;101035.00;;;13.31;100.00
35553;BME280;21656;46.054;13.614;2023-04-28T07:57:45;101038.91;;;13.27;100.00
35553;BME280;21656;46.054;13.614;2023-04-28T08:00:13;101042.09;;;13.20;100.00
35553;BME280;21656;46.054;13.614;2023-04-28T08:02:42;101045.66;;;13.21;100.00
35553;BME280;21656;46.054;13.614;2023-04-28T08:05:12;101042.84;;;13.22;100.00
35553;BME280;21656;46.054;13.614;2023-04-28T08:07:44;101052.44;;;13.27;100.00
35553;BME280;21656;46.054;13.614;2023-04-28T08:10:14;101045.41;;;13.24;100.00
35553;BME280;21656;46.054;13.614;2023-04-28T08:12:42;101043.81;;;13.21;100.00
35553;BME280;21656;46.054;13.614;2023-04-28T08:15:09;101042.59;;;13.26;100.00
35553;BME280;21656;46.054;13.614;2023-04-28T08:17:38;101041.50;;;13.28;100.00
35553;BME280;21656;46.054;13.614;2023-04-28T08:20:03;101039.16;;;13.23;100.00
35553;BME280;21656;46.054;13.614;2023-04-28T08:22:37;101038.69;;;13.30;100.00
35553;BME280;21656;46.054;13.614;2023-04-28T08:25:05;101038.28;;;13.23;100.00
35553;BME280;21656;46.054;13.614;2023-04-28T08:27:31;101036.44;;;13.23;100.00
35553;BME280;21656;46.054;13.614;2023-04-28T08:29:56;101030.44;;;13.31;100.00
35553;BME280;21656;46.054;13.614;2023-04-28T08:32:21;101041.09;;;13.44;100.00
35553;BME280;21656;46.054;13.614;2023-04-28T08:34:47;101027.50;;;13.66;100.00
35553;BME280;21656;46.054;13.614;2023-04-28T08:37:13;101028.91;;;13.82;100.00
35553;BME280;21656;46.054;13.614;2023-04-28T08:39:38;101029.84;;;13.92;100.00
35553;BME280;21656;46.054;13.614;2023-04-28T08:42:06;101034.41;;;14.13;100.00
35553;BME280;21656;46.054;13.614;2023-04-28T08:44:36;101030.47;;;14.17;100.00
35553;BME280;21656;46.054;13.614;2023-04-28T08:47:03;101025.03;;;14.17;100.00
35553;BME280;21656;46.054;13.614;2023-04-28T08:49:33;101035.94;;;14.05;100.00
35553;BME280;21656;46.054;13.614;2023-04-28T08:54:51;101031.00;;;14.31;100.00
35553;BME280;21656;46.054;13.614;2023-04-28T08:57:16;101021.84;;;14.32;100.00
35553;BME280;21656;46.054;13.614;2023-04-28T08:59:45;101026.47;;;14.42;100.00
35553;BME280;21656;46.054;13.614;2023-04-28T09:02:11;101018.91;;;14.57;100.00
35553;BME280;21656;46.054;13.614;2023-04-28T09:04:37;101030.66;;;14.67;100.00
35553;BME280;21656;46.054;13.614;2023-04-28T09:07:12;101027.06;;;14.45;100.00
35553;BME280;21656;46.054;13.614;2023-04-28T09:09:41;101027.03;;;14.36;100.00
35553;BME280;21656;46.054;13.614;2023-04-28T09:12:09;101017.38;;;14.22;100.00
35553;BME280;21656;46.054;13.614;2023-04-28T09:14:37;101017.72;;;14.28;100.00
35553;BME280;21656;46.054;13.614;2023-04-28T09:17:10;101008.09;;;14.45;100.00
35553;BME280;21656;46.054;13.614;2023-04-28T09:19:43;101007.31;;;14.55;99.32
35553;BME280;21656;46.054;13.614;2023-04-28T09:22:12;101006.31;;;14.56;98.17
35553;BME280;21656;46.054;13.614;2023-04-28T09:24:39;101008.50;;;14.62;98.97
35553;BME280;21656;46.054;13.614;2023-04-28T09:27:08;101008.09;;;14.66;96.81
35553;BME280;21656;46.054;13.614;2023-04-28T09:29:37;101008.13;;;14.76;97.70
35553;BME280;21656;46.054;13.614;2023-04-28T09:32:12;101010.19;;;14.84;98.72
35553;BME280;21656;46.054;13.614;2023-04-28T09:34:50;101009.28;;;14.52;100.00
35553;BME280;21656;46.054;13.614;2023-04-28T09:37:21;101005.38;;;14.45;100.00
35553;BME280;21656;46.054;13.614;2023-04-28T09:39:47;101011.53;;;14.47;100.00
35553;BME280;21656;46.054;13.614;2023-04-28T09:42:35;101006.94;;;14.38;100.00
35553;BME280;21656;46.054;13.614;2023-04-28T09:45:05;101015.66;;;14.42;100.00
35553;BME280;21656;46.054;13.614;2023-04-28T09:47:36;101010.81;;;14.45;100.00
35553;BME280;21656;46.054;13.614;2023-04-28T09:50:05;101019.22;;;14.42;100.00
35553;BME280;21656;46.054;13.614;2023-04-28T09:52:36;101017.09;;;14.46;100.00
35553;BME280;21656;46.054;13.614;2023-04-28T09:55:05;101011.81;;;14.44;100.00
35553;BME280;21656;46.054;13.614;2023-04-28T09:57:33;101006.66;;;14.41;100.00
35553;BME280;21656;46.054;13.614;2023-04-28T09:59:59;101002.94;;;14.42;100.00
35553;BME280;21656;46.054;13.614;2023-04-28T10:02:30;100995.66;;;14.43;100.00
35553;BME280;21656;46.054;13.614;2023-04-28T10:04:57;100994.09;;;14.40;100.00
35553;BME280;21656;46.054;13.614;2023-04-28T10:07:23;100995.81;;;14.41;100.00
35553;BME280;21656;46.054;13.614;2023-04-28T10:09:49;100988.56;;;14.42;100.00
35553;BME280;21656;46.054;13.614;2023-04-28T10:12:24;100988.66;;;14.40;100.00
35553;BME280;21656;46.054;13.614;2023-04-28T10:14:51;100991.53;;;14.39;100.00
35553;BME280;21656;46.054;13.614;2023-04-28T10:17:23;100989.56;;;14.41;100.00
35553;BME280;21656;46.054;13.614;2023-04-28T10:19:53;100986.25;;;14.37;100.00
35553;BME280;21656;46.054;13.614;2023-04-28T10:27:37;100979.66;;;14.09;100.00
35553;BME280;21656;46.054;13.614;2023-04-28T10:30:31;100985.94;;;14.09;100.00
35553;BME280;21656;46.054;13.614;2023-04-28T10:38:11;100959.41;;;14.03;100.00
35553;BME280;21656;46.054;13.614;2023-04-28T10:40:52;100966.53;;;14.04;100.00
35553;BME280;21656;46.054;13.614;2023-04-28T10:46:05;100948.16;;;14.08;100.00
35553;BME280;21656;46.054;13.614;2023-04-28T10:59:00;100967.16;;;14.18;100.00
35553;BME280;21656;46.054;13.614;2023-04-28T11:01:46;100952.84;;;14.06;100.00
35553;BME280;21656;46.054;13.614;2023-04-28T11:04:11;100965.00;;;14.12;100.00
35553;BME280;21656;46.054;13.614;2023-04-28T11:06:39;100959.66;;;14.00;100.00
35553;BME280;21656;46.054;13.614;2023-04-28T11:14:55;100966.16;;;14.70;100.00
35553;BME280;21656;46.054;13.614;2023-04-28T11:17:38;100964.47;;;14.69;100.00
35553;BME280;21656;46.054;13.614;2023-04-28T11:20:07;100968.09;;;14.89;100.00
35553;BME280;21656;46.054;13.614;2023-04-28T11:22:39;100960.00;;;14.99;100.00
35553;BME280;21656;46.054;13.614;2023-04-28T11:25:16;100947.31;;;15.09;100.00
35553;BME280;21656;46.054;13.614;2023-04-28T11:27:47;100939.03;;;15.30;100.00
35553;BME280;21656;46.054;13.614;2023-04-28T11:30:30;100935.91;;;15.74;100.00
35553;BME280;21656;46.054;13.614;2023-04-28T11:33:01;100927.41;;;16.16;100.00
35553;BME280;21656;46.054;13.614;2023-04-28T11:38:13;100920.94;;;16.27;100.00
35553;BME280;21656;46.054;13.614;2023-04-28T11:40:54;100916.84;;;16.40;100.00
35553;BME280;21656;46.054;13.614;2023-04-28T11:43:29;100920.91;;;16.64;100.00
35553;BME280;21656;46.054;13.614;2023-04-28T11:46:02;100915.69;;;16.80;100.00
35553;BME280;21656;46.054;13.614;2023-04-28T11:48:28;100912.63;;;17.11;100.00
35553;BME280;21656;46.054;13.614;2023-04-28T11:50:56;100902.69;;;17.20;100.00
35553;BME280;21656;46.054;13.614;2023-04-28T11:53:50;100899.41;;;17.34;100.00
35553;BME280;21656;46.054;13.614;2023-04-28T11:56:46;100909.13;;;17.37;100.00
35553;BME280;21656;46.054;13.614;2023-04-28T11:59:25;100912.94;;;17.26;100.00
35553;BME280;21656;46.054;13.614;2023-04-28T12:01:58;100906.03;;;17.14;100.00
35553;BME280;21656;46.054;13.614;2023-04-28T12:04:28;100895.13;;;17.14;100.00
35553;BME280;21656;46.054;13.614;2023-04-28T12:07:18;100884.50;;;17.02;93.16
35553;BME280;21656;46.054;13.614;2023-04-28T12:12:32;100888.69;;;16.97;88.10
35553;BME280;21656;46.054;13.614;2023-04-28T12:15:01;100888.91;;;17.03;88.60
35553;BME280;21656;46.054;13.614;2023-04-28T12:17:33;100881.00;;;17.10;83.54
35553;BME280;21656;46.054;13.614;2023-04-28T12:19:59;100874.53;;;17.29;71.58
35553;BME280;21656;46.054;13.614;2023-04-28T12:22:26;100874.38;;;17.48;67.04
35553;BME280;21656;46.054;13.614;2023-04-28T12:27:59;100882.38;;;17.50;69.94
35553;BME280;21656;46.054;13.614;2023-04-28T12:30:29;100878.19;;;17.38;67.01
35553;BME280;21656;46.054;13.614;2023-04-28T12:32:55;100884.56;;;17.28;69.96
35553;BME280;21656;46.054;13.614;2023-04-28T12:35:21;100889.63;;;17.23;71.03
35553;BME280;21656;46.054;13.614;2023-04-28T12:37:48;100885.28;;;17.13;67.39
35553;BME280;21656;46.054;13.614;2023-04-28T12:40:17;100884.31;;;17.04;64.87
35553;BME280;21656;46.054;13.614;2023-04-28T12:42:42;100881.69;;;16.94;71.72
35553;BME280;21656;46.054;13.614;2023-04-28T12:45:09;100877.47;;;16.82;70.52
35553;BME280;21656;46.054;13.614;2023-04-28T12:47:35;100879.50;;;16.70;69.95
35553;BME280;21656;46.054;13.614;2023-04-28T12:50:06;100867.84;;;16.60;71.87
35553;BME280;21656;46.054;13.614;2023-04-28T12:52:34;100865.16;;;16.50;72.44
35553;BME280;21656;46.054;13.614;2023-04-28T12:55:03;100849.56;;;16.52;71.16
35553;BME280;21656;46.054;13.614;2023-04-28T12:57:32;100842.84;;;16.56;77.96
35553;BME280;21656;46.054;13.614;2023-04-28T13:00:00;100837.63;;;16.63;80.28
35553;BME280;21656;46.054;13.614;2023-04-28T13:02:28;100827.53;;;16.73;73.33
35553;BME280;21656;46.054;13.614;2023-04-28T13:04:53;100821.75;;;16.86;70.49
35553;BME280;21656;46.054;13.614;2023-04-28T13:07:18;100814.16;;;16.89;70.74
35553;BME280;21656;46.054;13.614;2023-04-28T13:09:44;100814.22;;;16.98;68.64
35553;BME280;21656;46.054;13.614;2023-04-28T13:12:11;100805.34;;;16.96;66.25
35553;BME280;21656;46.054;13.614;2023-04-28T13:14:38;100807.38;;;16.94;60.00
35553;BME280;21656;46.054;13.614;2023-04-28T13:17:04;100810.03;;;16.85;58.52
35553;BME280;21656;46.054;13.614;2023-04-28T13:19:30;100810.78;;;16.96;64.67
35553;BME280;21656;46.054;13.614;2023-04-28T13:21:56;100801.53;;;17.06;63.77
35553;BME280;21656;46.054;13.614;2023-04-28T13:24:21;100797.75;;;17.17;63.98
35553;BME280;21656;46.054;13.614;2023-04-28T13:26:50;100796.25;;;17.23;60.68
35553;BME280;21656;46.054;13.614;2023-04-28T13:29:15;100781.38;;;17.35;61.55
35553;BME280;21656;46.054;13.614;2023-04-28T13:31:43;100777.56;;;17.28;63.82
35553;BME280;21656;46.054;13.614;2023-04-28T13:34:11;100771.34;;;17.36;66.37
35553;BME280;21656;46.054;13.614;2023-04-28T13:36:45;100760.44;;;17.36;64.12
35553;BME280;21656;46.054;13.614;2023-04-28T13:39:17;100746.84;;;17.36;63.22
35553;BME280;21656;46.054;13.614;2023-04-28T13:41:44;100750.25;;;17.38;62.28
35553;BME280;21656;46.054;13.614;2023-04-28T13:44:09;100752.50;;;17.42;61.15
35553;BME280;21656;46.054;13.614;2023-04-28T13:46:35;100753.19;;;17.44;60.34
35553;BME280;21656;46.054;13.614;2023-04-28T13:49:00;100757.66;;;17.53;58.93
35553;BME280;21656;46.054;13.614;2023-04-28T13:51:26;100751.81;;;17.40;54.01
35553;BME280;21656;46.054;13.614;2023-04-28T13:53:52;100754.06;;;17.45;57.81
35553;BME280;21656;46.054;13.614;2023-04-28T13:56:18;100750.69;;;17.51;56.33
35553;BME280;21656;46.054;13.614;2023-04-28T13:58:43;100757.78;;;17.44;56.42
35553;BME280;21656;46.054;13.614;2023-04-28T14:01:11;100762.84;;;17.39;56.30
35553;BME280;21656;46.054;13.614;2023-04-28T14:03:37;100752.19;;;17.19;54.41
35553;BME280;21656;46.054;13.614;2023-04-28T14:06:02;100758.88;;;17.07;56.04
35553;BME280;21656;46.054;13.614;2023-04-28T14:08:31;100757.25;;;16.96;55.54
35553;BME280;21656;46.054;13.614;2023-04-28T14:10:57;100754.53;;;16.96;58.26
35553;BME280;21656;46.054;13.614;2023-04-28T14:13:22;100752.69;;;16.97;64.26
35553;BME280;21656;46.054;13.614;2023-04-28T14:15:52;100742.97;;;16.94;64.34
35553;BME280;21656;46.054;13.614;2023-04-28T14:18:23;100751.66;;;16.98;58.45
35553;BME280;21656;46.054;13.614;2023-04-28T14:20:51;100748.56;;;16.93;62.56
35553;BME280;21656;46.054;13.614;2023-04-28T14:23:23;100756.56;;;16.94;66.83
35553;BME280;21656;46.054;13.614;2023-04-28T14:25:52;100750.44;;;16.92;72.17
35553;BME280;21656;46.054;13.614;2023-04-28T14:28:23;100746.84;;;16.92;66.70
35553;BME280;21656;46.054;13.614;2023-04-28T14:30:48;100741.25;;;16.93;63.90
35553;BME280;21656;46.054;13.614;2023-04-28T14:33:16;100730.69;;;16.90;69.24
35553;BME280;21656;46.054;13.614;2023-04-28T14:35:41;100719.66;;;16.92;69.70
35553;BME280;21656;46.054;13.614;2023-04-28T14:38:13;100707.22;;;16.89;73.33
35553;BME280;21656;46.054;13.614;2023-04-28T14:40:38;100701.13;;;16.95;71.14
35553;BME280;21656;46.054;13.614;2023-04-28T14:43:04;100700.88;;;17.06;68.93
35553;BME280;21656;46.054;13.614;2023-04-28T14:45:30;100702.66;;;17.16;62.37
35553;BME280;21656;46.054;13.614;2023-04-28T14:47:55;100696.63;;;17.30;62.19
35553;BME280;21656;46.054;13.614;2023-04-28T14:50:24;100690.56;;;17.44;62.25
35553;BME280;21656;46.054;13.614;2023-04-28T14:52:51;100690.00;;;17.67;58.57
35553;BME280;21656;46.054;13.614;2023-04-28T14:55:17;100678.38;;;17.83;57.19
35553;BME280;21656;46.054;13.614;2023-04-28T14:57:42;100685.03;;;17.88;54.13
35553;BME280;21656;46.054;13.614;2023-04-28T15:00:08;100701.88;;;17.84;54.00
35553;BME280;21656;46.054;13.614;2023-04-28T15:02:34;100699.56;;;17.71;51.61
35553;BME280;21656;46.054;13.614;2023-04-28T15:04:59;100693.53;;;17.59;56.55
35553;BME280;21656;46.054;13.614;2023-04-28T15:07:25;100691.44;;;17.45;55.43
35553;BME280;21656;46.054;13.614;2023-04-28T15:09:55;100695.50;;;17.41;51.13
35553;BME280;21656;46.054;13.614;2023-04-28T15:12:20;100690.56;;;17.44;52.33
35553;BME280;21656;46.054;13.614;2023-04-28T15:14:47;100686.50;;;17.48;53.44
35553;BME280;21656;46.054;13.614;2023-04-28T15:17:13;100688.50;;;17.38;49.23
35553;BME280;21656;46.054;13.614;2023-04-28T15:19:38;100693.94;;;17.38;48.55
35553;BME280;21656;46.054;13.614;2023-04-28T15:22:03;100700.28;;;17.47;50.23
35553;BME280;21656;46.054;13.614;2023-04-28T15:24:31;100690.63;;;17.52;48.30
35553;BME280;21656;46.054;13.614;2023-04-28T15:26:58;100689.38;;;17.47;48.59
35553;BME280;21656;46.054;13.614;2023-04-28T15:29:23;100680.97;;;17.58;50.39
35553;BME280;21656;46.054;13.614;2023-04-28T15:31:48;100677.94;;;17.69;51.02
35553;BME280;21656;46.054;13.614;2023-04-28T15:34:15;100687.22;;;17.85;50.69
35553;BME280;21656;46.054;13.614;2023-04-28T15:36:41;100675.97;;;17.80;48.88
35553;BME280;21656;46.054;13.614;2023-04-28T15:39:07;100674.13;;;17.80;48.82
35553;BME280;21656;46.054;13.614;2023-04-28T15:41:33;100673.94;;;17.82;48.45
35553;BME280;21656;46.054;13.614;2023-04-28T15:43:58;100675.66;;;17.83;48.74
35553;BME280;21656;46.054;13.614;2023-04-28T15:46:25;100670.81;;;17.76;46.90
35553;BME280;21656;46.054;13.614;2023-04-28T15:48:53;100668.94;;;17.77;47.52
35553;BME280;21656;46.054;13.614;2023-04-28T15:51:20;100664.91;;;17.81;47.84
35553;BME280;21656;46.054;13.614;2023-04-28T15:53:49;100652.84;;;17.84;47.99
35553;BME280;21656;46.054;13.614;2023-04-28T15:56:18;100651.50;;;17.88;48.58
35553;BME280;21656;46.054;13.614;2023-04-28T15:58:44;100649.44;;;17.90;47.85
35553;BME280;21656;46.054;13.614;2023-04-28T16:01:11;100642.97;;;17.91;52.06
35553;BME280;21656;46.054;13.614;2023-04-28T16:03:37;100632.59;;;17.86;51.19
35553;BME280;21656;46.054;13.614;2023-04-28T16:06:03;100625.94;;;17.81;49.27
35553;BME280;21656;46.054;13.614;2023-04-28T16:08:41;100628.91;;;17.69;49.23
35553;BME280;21656;46.054;13.614;2023-04-28T16:11:16;100635.31;;;17.52;46.61
35553;BME280;21656;46.054;13.614;2023-04-28T16:13:47;100624.88;;;17.39;47.05
35553;BME280;21656;46.054;13.614;2023-04-28T16:16:13;100612.78;;;17.33;47.52
35553;BME280;21656;46.054;13.614;2023-04-28T16:18:38;100619.50;;;17.21;49.06
35553;BME280;21656;46.054;13.614;2023-04-28T16:21:04;100620.50;;;17.12;50.18
35553;BME280;21656;46.054;13.614;2023-04-28T16:23:29;100625.03;;;17.03;49.57
35553;BME280;21656;46.054;13.614;2023-04-28T16:25:55;100626.66;;;16.96;51.98
35553;BME280;21656;46.054;13.614;2023-04-28T16:28:23;100613.22;;;16.86;53.87
35553;BME280;21656;46.054;13.614;2023-04-28T16:30:48;100616.53;;;16.80;59.13
35553;BME280;21656;46.054;13.614;2023-04-28T16:33:14;100614.22;;;16.67;65.39
35553;BME280;21656;46.054;13.614;2023-04-28T16:35:52;100598.19;;;16.56;67.72
35553;BME280;21656;46.054;13.614;2023-04-28T16:38:23;100599.63;;;16.51;67.26
35553;BME280;21656;46.054;13.614;2023-04-28T16:40:49;100590.81;;;16.49;69.09
35553;BME280;21656;46.054;13.614;2023-04-28T16:43:16;100596.53;;;16.45;69.36
35553;BME280;21656;46.054;13.614;2023-04-28T16:45:42;100590.63;;;16.50;69.41
35553;BME280;21656;46.054;13.614;2023-04-28T16:48:10;100590.91;;;16.39;69.97
35553;BME280;21656;46.054;13.614;2023-04-28T16:50:40;100591.13;;;16.28;69.32
35553;BME280;21656;46.054;13.614;2023-04-28T16:53:06;100583.38;;;16.15;70.20
35553;BME280;21656;46.054;13.614;2023-04-28T16:55:33;100593.78;;;16.01;72.52
35553;BME280;21656;46.054;13.614;2023-04-28T16:57:58;100595.72;;;15.91;78.12
35553;BME280;21656;46.054;13.614;2023-04-28T17:00:24;100596.63;;;15.82;80.18
35553;BME280;21656;46.054;13.614;2023-04-28T17:02:51;100593.81;;;15.74;81.77
35553;BME280;21656;46.054;13.614;2023-04-28T17:05:17;100587.72;;;15.62;84.21
35553;BME280;21656;46.054;13.614;2023-04-28T17:07:42;100583.22;;;15.53;87.16
35553;BME280;21656;46.054;13.614;2023-04-28T17:10:08;100585.28;;;15.41;85.12
35553;BME280;21656;46.054;13.614;2023-04-28T17:12:34;100592.59;;;15.31;87.26
35553;BME280;21656;46.054;13.614;2023-04-28T17:14:59;100588.53;;;15.17;87.30
35553;BME280;21656;46.054;13.614;2023-04-28T17:17:25;100590.03;;;15.02;90.75
35553;BME280;21656;46.054;13.614;2023-04-28T17:19:53;100594.78;;;14.90;92.04
35553;BME280;21656;46.054;13.614;2023-04-28T17:22:19;100591.09;;;14.81;99.48
35553;BME280;21656;46.054;13.614;2023-04-28T17:24:44;100581.44;;;14.69;100.00